sensor_id;sensor_type;location;lat;lon;timestamp;pressure;altitude;pressure_sealevel;temperature;humidity
61674;BME280;47573;43.832;5.974;2022-10-31T00:00:51;95851.28;;;25.10;63.67
61674;BME280;47573;43.832;5.974;2022-10-31T00:05:52;95847.97;;;25.08;63.75
61674;BME280;47573;43.832;5.974;2022-10-31T00:10:53;95842.50;;;25.08;63.79
61674;BME280;47573;43.832;5.974;2022-10-31T00:15:54;95842.50;;;25.08;63.62
61674;BME280;47573;43.832;5.974;2022-10-31T00:20:59;95841.31;;;25.04;63.80
61674;BME280;47573;43.832;5.974;2022-10-31T00:26:00;95839.44;;;25.05;63.82
61674;BME280;47573;43.832;5.974;2022-10-31T00:31:03;95835.28;;;25.02;63.82
61674;BME280;47573;43.832;5.974;2022-10-31T00:36:05;95836.94;;;25.03;63.70
61674;BME280;47573;43.832;5.974;2022-10-31T00:41:06;95835.28;;;25.02;63.99
61674;BME280;47573;43.832;5.974;2022-10-31T00:46:08;95840.41;;;24.99;63.97
61674;BME280;47573;43.832;5.974;2022-10-31T00:51:08;95834.09;;;24.98;63.81
61674;BME280;47573;43.832;5.974;2022-10-31T00:56:09;95828.63;;;24.98;63.87
61674;BME280;47573;43.832;5.974;2022-10-31T01:01:11;95833.53;;;24.96;63.80
61674;BME280;47573;43.832;5.974;2022-10-31T01:06:13;95817.97;;;24.97;63.78
61674;BME280;47573;43.832;5.974;2022-10-31T01:11:15;95814.28;;;24.91;64.08
61674;BME280;47573;43.832;5.974;2022-10-31T01:16:18;95809.66;;;24.92;64.09
61674;BME280;47573;43.832;5.974;2022-10-31T01:21:21;95812.13;;;24.93;63.85
61674;BME280;47573;43.832;5.974;2022-10-31T01:26:23;95807.19;;;24.90;64.23
61674;BME280;47573;43.832;5.974;2022-10-31T01:31:27;95801.38;;;24.87;64.26
61674;BME280;47573;43.832;5.974;2022-10-31T01:36:31;95793.41;;;24.85;63.97
61674;BME280;47573;43.832;5.974;2022-10-31T01:41:34;95792.25;;;24.81;63.98
61674;BME280;47573;43.832;5.974;2022-10-31T01:46:39;95790.59;;;24.80;64.32
61674;BME280;47573;43.832;5.974;2022-10-31T01:51:44;95785.59;;;24.77;64.26
61674;BME280;47573;43.832;5.974;2022-10-31T01:56:48;95791.06;;;24.77;64.31
61674;BME280;47573;43.832;5.974;2022-10-31T02:01:51;95792.59;;;24.73;64.37
61674;BME280;47573;43.832;5.974;2022-10-31T02:06:55;95790.38;;;24.70;64.39
61674;BME280;47573;43.832;5.974;2022-10-31T02:11:59;95781.59;;;24.68;64.56
61674;BME280;47573;43.832;5.974;2022-10-31T02:17:01;95779.91;;;24.67;64.24
61674;BME280;47573;43.832;5.974;2022-10-31T02:22:05;95775.75;;;24.64;64.62
61674;BME280;47573;43.832;5.974;2022-10-31T02:27:42;95765.34;;;24.61;64.52
61674;BME280;47573;43.832;5.974;2022-10-31T02:33:10;95761.78;;;24.61;64.25
61674;BME280;47573;43.832;5.974;2022-10-31T02:38:24;95768.28;;;24.60;64.17
61674;BME280;47573;43.832;5.974;2022-10-31T02:43:31;95772.94;;;24.59;64.14
61674;BME280;47573;43.832;5.974;2022-10-31T02:48:38;95778.63;;;24.58;64.37
61674;BME280;47573;43.832;5.974;2022-10-31T02:53:40;95774.25;;;24.57;64.26
61674;BME280;47573;43.832;5.974;2022-10-31T02:58:44;95780.75;;;24.56;64.45
61674;BME280;47573;43.832;5.974;2022-10-31T03:03:57;95773.66;;;24.55;64.28
61674;BME280;47573;43.832;5.974;2022-10-31T03:09:07;95769.25;;;24.54;64.14
61674;BME280;47573;43.832;5.974;2022-10-31T03:14:16;95770.34;;;24.53;64.08
61674;BME280;47573;43.832;5.974;2022-10-31T03:19:24;95771.41;;;24.52;64.03
61674;BME280;47573;43.832;5.974;2022-10-31T03:24:29;95769.16;;;24.49;64.32
61674;BME280;47573;43.832;5.974;2022-10-31T03:29:33;95769.75;;;24.51;64.31
61674;BME280;47573;43.832;5.974;2022-10-31T03:34:37;95770.22;;;24.48;63.94
61674;BME280;47573;43.832;5.974;2022-10-31T03:39:41;95766.91;;;24.46;64.12
61674;BME280;47573;43.832;5.974;2022-10-31T03:44:46;95774.50;;;24.44;64.13
61674;BME280;47573;43.832;5.974;2022-10-31T03:49:52;95776.19;;;24.45;63.96
61674;BME280;47573;43.832;5.974;2022-10-31T03:54:56;95772.28;;;24.41;64.05
61674;BME280;47573;43.832;5.974;2022-10-31T04:00:03;95767.63;;;24.41;64.22
61674;BME280;47573;43.832;5.974;2022-10-31T04:05:06;95767.88;;;24.40;64.35
61674;BME280;47573;43.832;5.974;2022-10-31T04:10:11;95771.69;;;24.39;64.38
61674;BME280;47573;43.832;5.974;2022-10-31T04:15:12;95759.94;;;24.38;64.31
61674;BME280;47573;43.832;5.974;2022-10-31T04:20:16;95766.69;;;24.36;64.31
61674;BME280;47573;43.832;5.974;2022-10-31T04:25:17;95778.47;;;24.36;64.33
61674;BME280;47573;43.832;5.974;2022-10-31T04:30:17;95779.19;;;24.32;64.14
61674;BME280;47573;43.832;5.974;2022-10-31T04:35:19;95775.59;;;24.31;64.41
61674;BME280;47573;43.832;5.974;2022-10-31T04:40:20;95772.03;;;24.31;64.03
61674;BME280;47573;43.832;5.974;2022-10-31T04:45:20;95772.53;;;24.28;64.17
61674;BME280;47573;43.832;5.974;2022-10-31T04:50:22;95762.69;;;24.27;64.38
61674;BME280;47573;43.832;5.974;2022-10-31T04:55:23;95763.19;;;24.24;64.11
61674;BME280;47573;43.832;5.974;2022-10-31T05:00:23;95769.09;;;24.21;64.34
61674;BME280;47573;43.832;5.974;2022-10-31T05:05:27;95774.09;;;24.24;64.11
61674;BME280;47573;43.832;5.974;2022-10-31T05:10:29;95773.50;;;24.22;64.15
61674;BME280;47573;43.832;5.974;2022-10-31T05:15:30;95777.78;;;24.18;64.36
61674;BME280;47573;43.832;5.974;2022-10-31T05:20:33;95775.31;;;24.16;64.14
61674;BME280;47573;43.832;5.974;2022-10-31T05:25:33;95778.84;;;24.17;64.40
61674;BME280;47573;43.832;5.974;2022-10-31T05:30:34;95766.28;;;24.16;64.07
61674;BME280;47573;43.832;5.974;2022-10-31T05:35:37;95760.44;;;24.12;64.15
61674;BME280;47573;43.832;5.974;2022-10-31T05:40:37;95744.91;;;24.13;64.24
61674;BME280;47573;43.832;5.974;2022-10-31T05:45:38;95757.97;;;24.11;64.44
61674;BME280;47573;43.832;5.974;2022-10-31T05:50:39;95782.06;;;24.14;64.28
61674;BME280;47573;43.832;5.974;2022-10-31T05:55:41;95786.09;;;24.11;64.09
61674;BME280;47573;43.832;5.974;2022-10-31T06:00:42;95785.25;;;24.11;64.11
61674;BME280;47573;43.832;5.974;2022-10-31T06:05:44;95798.31;;;24.09;64.29
61674;BME280;47573;43.832;5.974;2022-10-31T06:10:44;95813.03;;;24.08;64.27
61674;BME280;47573;43.832;5.974;2022-10-31T06:15:45;95826.06;;;24.06;64.33
61674;BME280;47573;43.832;5.974;2022-10-31T06:20:47;95825.00;;;24.07;64.26
61674;BME280;47573;43.832;5.974;2022-10-31T06:25:48;95829.84;;;24.05;64.34
61674;BME280;47573;43.832;5.974;2022-10-31T06:30:49;95838.63;;;24.07;64.25
61674;BME280;47573;43.832;5.974;2022-10-31T06:35:51;95834.84;;;24.08;63.96
61674;BME280;47573;43.832;5.974;2022-10-31T06:40:51;95831.63;;;24.11;64.07
61674;BME280;47573;43.832;5.974;2022-10-31T06:45:51;95836.03;;;24.12;63.61
61674;BME280;47573;43.832;5.974;2022-10-31T06:50:57;95853.72;;;24.09;63.93
61674;BME280;47573;43.832;5.974;2022-10-31T06:55:58;95857.47;;;24.08;63.99
61674;BME280;47573;43.832;5.974;2022-10-31T07:00:59;95855.72;;;24.14;63.57
61674;BME280;47573;43.832;5.974;2022-10-31T07:06:01;95854.63;;;24.15;63.61
61674;BME280;47573;43.832;5.974;2022-10-31T07:11:01;95848.59;;;24.13;63.70
61674;BME280;47573;43.832;5.974;2022-10-31T07:16:03;95844.09;;;24.07;63.50
61674;BME280;47573;43.832;5.974;2022-10-31T07:21:05;95849.09;;;24.10;63.88
61674;BME280;47573;43.832;5.974;2022-10-31T07:26:07;95856.38;;;23.97;64.11
61674;BME280;47573;43.832;5.974;2022-10-31T07:31:07;95866.69;;;23.95;64.57
61674;BME280;47573;43.832;5.974;2022-10-31T07:36:10;95867.78;;;23.94;64.31
61674;BME280;47573;43.832;5.974;2022-10-31T07:41:10;95857.47;;;23.96;64.51
61674;BME280;47573;43.832;5.974;2022-10-31T07:46:10;95846.31;;;23.98;64.08
61674;BME280;47573;43.832;5.974;2022-10-31T07:51:12;95846.69;;;24.02;64.12
61674;BME280;47573;43.832;5.974;2022-10-31T07:56:13;95859.25;;;24.03;63.85
61674;BME280;47573;43.832;5.974;2022-10-31T08:01:13;95880.63;;;24.06;63.97
61674;BME280;47573;43.832;5.974;2022-10-31T08:06:15;95866.75;;;24.07;63.78
61674;BME280;47573;43.832;5.974;2022-10-31T08:11:16;95874.09;;;24.07;63.36
61674;BME280;47573;43.832;5.974;2022-10-31T08:16:16;95892.19;;;23.89;50.29
61674;BME280;47573;43.832;5.974;2022-10-31T08:21:18;95889.38;;;23.43;48.49
61674;BME280;47573;43.832;5.974;2022-10-31T08:26:19;95899.81;;;23.28;47.01
61674;BME280;47573;43.832;5.974;2022-10-31T08:31:19;95900.16;;;23.20;48.81
61674;BME280;47573;43.832;5.974;2022-10-31T08:36:21;95877.66;;;22.95;50.73
61674;BME280;47573;43.832;5.974;2022-10-31T08:41:22;95869.59;;;23.18;50.48
61674;BME280;47573;43.832;5.974;2022-10-31T08:46:22;95872.13;;;23.01;53.87
61674;BME280;47573;43.832;5.974;2022-10-31T08:51:24;95861.63;;;22.87;54.86
61674;BME280;47573;43.832;5.974;2022-10-31T08:56:24;95870.03;;;23.15;53.77
61674;BME280;47573;43.832;5.974;2022-10-31T09:01:25;95880.47;;;23.18;54.20
61674;BME280;47573;43.832;5.974;2022-10-31T09:06:27;95892.31;;;23.83;53.43
61674;BME280;47573;43.832;5.974;2022-10-31T09:11:29;95889.34;;;23.84;53.03
61674;BME280;47573;43.832;5.974;2022-10-31T09:16:30;95883.41;;;23.87;54.07
61674;BME280;47573;43.832;5.974;2022-10-31T09:21:32;95888.31;;;23.97;54.32
61674;BME280;47573;43.832;5.974;2022-10-31T09:26:33;95887.22;;;23.86;55.08
61674;BME280;47573;43.832;5.974;2022-10-31T09:31:33;95885.59;;;24.09;54.35
61674;BME280;47573;43.832;5.974;2022-10-31T09:36:36;95888.94;;;24.11;53.64
61674;BME280;47573;43.832;5.974;2022-10-31T09:41:56;95875.66;;;24.26;54.62
61674;BME280;47573;43.832;5.974;2022-10-31T09:47:06;95870.91;;;24.33;55.19
61674;BME280;47573;43.832;5.974;2022-10-31T09:52:24;95867.44;;;24.37;55.57
61674;BME280;47573;43.832;5.974;2022-10-31T09:57:29;95869.47;;;24.42;55.36
61674;BME280;47573;43.832;5.974;2022-10-31T10:02:35;95870.91;;;24.44;55.18
61674;BME280;47573;43.832;5.974;2022-10-31T10:07:44;95875.28;;;24.45;55.24
61674;BME280;47573;43.832;5.974;2022-10-31T10:12:59;95881.09;;;24.49;55.56
61674;BME280;47573;43.832;5.974;2022-10-31T10:18:08;95887.75;;;24.53;55.16
61674;BME280;47573;43.832;5.974;2022-10-31T10:23:23;95881.19;;;24.54;55.49
61674;BME280;47573;43.832;5.974;2022-10-31T10:28:32;95885.59;;;24.55;55.54
61674;BME280;47573;43.832;5.974;2022-10-31T10:33:36;95874.19;;;24.58;55.28
61674;BME280;47573;43.832;5.974;2022-10-31T10:38:48;95881.31;;;24.59;55.66
61674;BME280;47573;43.832;5.974;2022-10-31T10:43:51;95874.56;;;24.61;55.40
61674;BME280;47573;43.832;5.974;2022-10-31T10:48:55;95877.38;;;24.66;55.36
61674;BME280;47573;43.832;5.974;2022-10-31T10:54:12;95880.09;;;24.66;55.18
61674;BME280;47573;43.832;5.974;2022-10-31T10:59:18;95873.34;;;24.69;55.01
61674;BME280;47573;43.832;5.974;2022-10-31T11:04:29;95871.78;;;24.73;55.28
61674;BME280;47573;43.832;5.974;2022-10-31T11:09:32;95873.84;;;24.78;55.15
61674;BME280;47573;43.832;5.974;2022-10-31T11:14:37;95870.84;;;24.79;55.10
61674;BME280;47573;43.832;5.974;2022-10-31T11:19:42;95870.38;;;24.82;54.92
61674;BME280;47573;43.832;5.974;2022-10-31T11:24:44;95859.78;;;24.86;55.06
61674;BME280;47573;43.832;5.974;2022-10-31T11:29:45;95855.19;;;24.86;55.09
61674;BME280;47573;43.832;5.974;2022-10-31T11:34:47;95844.59;;;24.90;nan
61674;BME280;47573;43.832;5.974;2022-10-31T11:39:52;95845.34;;;25.41;49.19
61674;BME280;47573;43.832;5.974;2022-10-31T11:44:54;95832.53;;;25.59;40.94
61674;BME280;47573;43.832;5.974;2022-10-31T11:49:56;95850.59;;;25.60;42.72
61674;BME280;47573;43.832;5.974;2022-10-31T11:55:13;95822.59;;;25.52;42.46
61674;BME280;47573;43.832;5.974;2022-10-31T12:00:22;95823.34;;;25.65;39.50
61674;BME280;47573;43.832;5.974;2022-10-31T12:05:26;95810.81;;;25.52;39.92
61674;BME280;47573;43.832;5.974;2022-10-31T12:10:36;95808.59;;;25.37;44.17
61674;BME280;47573;43.832;5.974;2022-10-31T12:15:44;95801.63;;;25.13;45.56
61674;BME280;47573;43.832;5.974;2022-10-31T12:20:57;95801.63;;;25.13;46.39
61674;BME280;47573;43.832;5.974;2022-10-31T12:31:20;95782.75;;;25.12;47.01
61674;BME280;47573;43.832;5.974;2022-10-31T12:36:35;95772.13;;;25.15;47.59
61674;BME280;47573;43.832;5.974;2022-10-31T12:41:45;95765.00;;;25.14;48.08
61674;BME280;47573;43.832;5.974;2022-10-31T12:46:58;95759.53;;;25.14;48.40
61674;BME280;47573;43.832;5.974;2022-10-31T12:52:13;95754.06;;;25.14;48.53
61674;BME280;47573;43.832;5.974;2022-10-31T12:57:23;95744.50;;;25.12;49.10
61674;BME280;47573;43.832;5.974;2022-10-31T13:02:31;95737.09;;;25.12;49.23
61674;BME280;47573;43.832;5.974;2022-10-31T13:07:36;95736.03;;;25.13;49.48
61674;BME280;47573;43.832;5.974;2022-10-31T13:12:40;95722.84;;;25.10;50.34
61674;BME280;47573;43.832;5.974;2022-10-31T13:17:43;95725.34;;;25.12;50.32
61674;BME280;47573;43.832;5.974;2022-10-31T13:22:48;95724.59;;;25.16;49.97
61674;BME280;47573;43.832;5.974;2022-10-31T13:27:54;95720.47;;;25.14;50.45
61674;BME280;47573;43.832;5.974;2022-10-31T13:33:01;95703.88;;;25.20;50.36
61674;BME280;47573;43.832;5.974;2022-10-31T13:38:11;95705.03;;;25.24;51.04
61674;BME280;47573;43.832;5.974;2022-10-31T13:43:23;95693.63;;;25.27;50.66
61674;BME280;47573;43.832;5.974;2022-10-31T13:48:35;95696.47;;;25.32;50.67
61674;BME280;47573;43.832;5.974;2022-10-31T13:53:39;95701.41;;;25.35;50.87
61674;BME280;47573;43.832;5.974;2022-10-31T13:58:42;95700.25;;;25.31;50.96
61674;BME280;47573;43.832;5.974;2022-10-31T14:04:00;95694.78;;;25.31;51.16
61674;BME280;47573;43.832;5.974;2022-10-31T14:09:03;95700.25;;;25.31;51.19
61674;BME280;47573;43.832;5.974;2022-10-31T14:14:11;95692.94;;;25.37;51.16
61674;BME280;47573;43.832;5.974;2022-10-31T14:19:17;95705.41;;;25.28;51.55
61674;BME280;47573;43.832;5.974;2022-10-31T14:24:36;95687.16;;;25.33;51.49
61674;BME280;47573;43.832;5.974;2022-10-31T14:29:38;95685.53;;;25.32;51.63
61674;BME280;47573;43.832;5.974;2022-10-31T14:34:40;95693.16;;;25.30;52.14
61674;BME280;47573;43.832;5.974;2022-10-31T14:39:50;95698.94;;;25.34;52.20
61674;BME280;47573;43.832;5.974;2022-10-31T14:50:34;95682.22;;;25.30;52.24
61674;BME280;47573;43.832;5.974;2022-10-31T14:55:40;95689.41;;;25.36;52.37
61674;BME280;47573;43.832;5.974;2022-10-31T15:00:44;95683.38;;;25.34;52.63
61674;BME280;47573;43.832;5.974;2022-10-31T15:05:48;95701.94;;;25.32;52.86
61674;BME280;47573;43.832;5.974;2022-10-31T15:10:50;95696.63;;;25.26;52.99
61674;BME280;47573;43.832;5.974;2022-10-31T15:15:54;95688.16;;;25.27;53.21
61674;BME280;47573;43.832;5.974;2022-10-31T15:20:56;95702.56;;;25.23;53.28
61674;BME280;47573;43.832;5.974;2022-10-31T15:26:00;95701.72;;;25.22;53.64
61674;BME280;47573;43.832;5.974;2022-10-31T15:31:02;95702.56;;;25.23;53.58
61674;BME280;47573;43.832;5.974;2022-10-31T15:36:03;95700.78;;;25.28;53.25
61674;BME280;47573;43.832;5.974;2022-10-31T15:41:06;95691.06;;;25.21;53.54
61674;BME280;47573;43.832;5.974;2022-10-31T15:46:20;95695.88;;;25.30;53.21
61674;BME280;47573;43.832;5.974;2022-10-31T15:51:26;95695.09;;;25.18;54.14
61674;BME280;47573;43.832;5.974;2022-10-31T15:56:29;95693.06;;;25.25;53.68
61674;BME280;47573;43.832;5.974;2022-10-31T16:01:33;95691.63;;;25.23;54.12
61674;BME280;47573;43.832;5.974;2022-10-31T16:06:34;95688.75;;;25.29;53.69
61674;BME280;47573;43.832;5.974;2022-10-31T16:11:37;95692.94;;;25.20;54.37
61674;BME280;47573;43.832;5.974;2022-10-31T16:16:44;95686.16;;;25.23;54.51
61674;BME280;47573;43.832;5.974;2022-10-31T16:21:47;95689.16;;;25.21;54.70
61674;BME280;47573;43.832;5.974;2022-10-31T16:26:50;95695.78;;;25.25;54.28
61674;BME280;47573;43.832;5.974;2022-10-31T16:31:53;95703.41;;;25.23;54.24
61674;BME280;47573;43.832;5.974;2022-10-31T16:36:53;95709.44;;;25.25;53.86
61674;BME280;47573;43.832;5.974;2022-10-31T16:41:55;95713.81;;;25.26;54.06
61674;BME280;47573;43.832;5.974;2022-10-31T16:47:13;95726.91;;;25.24;54.50
61674;BME280;47573;43.832;5.974;2022-10-31T16:52:14;95734.53;;;25.22;54.10
61674;BME280;47573;43.832;5.974;2022-10-31T16:57:17;95737.09;;;25.29;54.22
61674;BME280;47573;43.832;5.974;2022-10-31T17:02:21;95738.94;;;25.23;54.77
61674;BME280;47573;43.832;5.974;2022-10-31T17:07:21;95744.16;;;25.25;54.57
61674;BME280;47573;43.832;5.974;2022-10-31T17:12:25;95744.41;;;25.23;54.94
61674;BME280;47573;43.832;5.974;2022-10-31T17:17:29;95757.56;;;25.26;54.86
61674;BME280;47573;43.832;5.974;2022-10-31T17:22:29;95764.22;;;25.30;54.99
61674;BME280;47573;43.832;5.974;2022-10-31T17:27:30;95767.69;;;25.26;54.87
61674;BME280;47573;43.832;5.974;2022-10-31T17:32:32;95776.94;;;25.25;55.06
61674;BME280;47573;43.832;5.974;2022-10-31T17:37:32;95791.34;;;25.20;55.71
61674;BME280;47573;43.832;5.974;2022-10-31T17:42:33;95801.53;;;25.25;55.31
61674;BME280;47573;43.832;5.974;2022-10-31T17:47:35;95800.63;;;25.19;55.45
61674;BME280;47573;43.832;5.974;2022-10-31T17:52:35;95806.09;;;25.19;56.04
61674;BME280;47573;43.832;5.974;2022-10-31T17:57:37;95809.88;;;25.18;56.00
61674;BME280;47573;43.832;5.974;2022-10-31T18:02:39;95809.31;;;25.16;56.06
61674;BME280;47573;43.832;5.974;2022-10-31T18:07:39;95796.16;;;25.13;56.55
61674;BME280;47573;43.832;5.974;2022-10-31T18:12:40;95804.78;;;25.22;56.18
61674;BME280;47573;43.832;5.974;2022-10-31T18:17:42;95793.50;;;25.18;56.49
61674;BME280;47573;43.832;5.974;2022-10-31T18:22:42;95805.00;;;25.20;56.47
61674;BME280;47573;43.832;5.974;2022-10-31T18:27:43;95804.03;;;25.26;56.64
61674;BME280;47573;43.832;5.974;2022-10-31T18:32:48;95813.91;;;25.27;56.80
61674;BME280;47573;43.832;5.974;2022-10-31T18:37:48;95816.03;;;25.25;56.84
61674;BME280;47573;43.832;5.974;2022-10-31T18:42:49;95823.78;;;25.28;56.85
61674;BME280;47573;43.832;5.974;2022-10-31T18:47:51;95824.25;;;25.25;56.91
61674;BME280;47573;43.832;5.974;2022-10-31T18:52:52;95823.66;;;25.23;56.91
61674;BME280;47573;43.832;5.974;2022-10-31T18:57:52;95814.88;;;25.21;57.27
61674;BME280;47573;43.832;5.974;2022-10-31T19:02:54;95814.03;;;25.21;57.47
61674;BME280;47573;43.832;5.974;2022-10-31T19:07:55;95806.09;;;25.19;57.41
61674;BME280;47573;43.832;5.974;2022-10-31T19:12:55;95811.06;;;25.22;57.44
61674;BME280;47573;43.832;5.974;2022-10-31T19:17:57;95822.50;;;25.19;57.53
61674;BME280;47573;43.832;5.974;2022-10-31T19:22:58;95812.72;;;25.23;57.39
61674;BME280;47573;43.832;5.974;2022-10-31T19:27:59;95815.78;;;25.27;57.47
61674;BME280;47573;43.832;5.974;2022-10-31T19:33:01;95817.22;;;25.29;57.59
61674;BME280;47573;43.832;5.974;2022-10-31T19:38:01;95829.59;;;25.20;57.76
61674;BME280;47573;43.832;5.974;2022-10-31T19:43:02;95825.13;;;25.14;57.94
61674;BME280;47573;43.832;5.974;2022-10-31T19:48:04;95830.78;;;25.24;57.95
61674;BME280;47573;43.832;5.974;2022-10-31T19:53:04;95823.66;;;25.23;58.13
61674;BME280;47573;43.832;5.974;2022-10-31T19:58:05;95820.03;;;25.18;58.27
61674;BME280;47573;43.832;5.974;2022-10-31T20:03:08;95826.28;;;25.18;58.45
61674;BME280;47573;43.832;5.974;2022-10-31T20:08:12;95824.25;;;25.25;58.65
61674;BME280;47573;43.832;5.974;2022-10-31T20:13:13;95835.75;;;25.27;58.87
61674;BME280;47573;43.832;5.974;2022-10-31T20:18:15;95831.75;;;25.18;59.19
61674;BME280;47573;43.832;5.974;2022-10-31T20:23:16;95819.19;;;25.17;59.33
61674;BME280;47573;43.832;5.974;2022-10-31T20:28:17;95832.25;;;25.15;59.22
61674;BME280;47573;43.832;5.974;2022-10-31T20:33:18;95855.75;;;25.16;59.18
61674;BME280;47573;43.832;5.974;2022-10-31T20:38:19;95860.44;;;25.16;59.20
61674;BME280;47573;43.832;5.974;2022-10-31T20:43:19;95866.69;;;25.16;59.32
61674;BME280;47573;43.832;5.974;2022-10-31T20:48:21;95846.41;;;25.12;59.64
61674;BME280;47573;43.832;5.974;2022-10-31T20:53:22;95836.06;;;25.14;59.64
61674;BME280;47573;43.832;5.974;2022-10-31T20:58:22;95830.13;;;25.17;59.65
61674;BME280;47573;43.832;5.974;2022-10-31T21:03:25;95830.59;;;25.14;59.83
61674;BME280;47573;43.832;5.974;2022-10-31T21:08:27;95828.84;;;25.08;59.62
61674;BME280;47573;43.832;5.974;2022-10-31T21:13:28;95826.78;;;25.15;59.86
61674;BME280;47573;43.832;5.974;2022-10-31T21:18:29;95825.63;;;25.11;59.84
61674;BME280;47573;43.832;5.974;2022-10-31T21:23:30;95830.59;;;25.14;60.02
61674;BME280;47573;43.832;5.974;2022-10-31T21:28:31;95820.88;;;25.07;60.13
61674;BME280;47573;43.832;5.974;2022-10-31T21:33:33;95827.78;;;25.09;60.23
61674;BME280;47573;43.832;5.974;2022-10-31T21:38:34;95815.09;;;25.03;60.36
61674;BME280;47573;43.832;5.974;2022-10-31T21:43:35;95812.03;;;25.16;60.06
61674;BME280;47573;43.832;5.974;2022-10-31T21:48:39;95822.50;;;25.19;59.82
61674;BME280;47573;43.832;5.974;2022-10-31T21:53:40;95799.47;;;25.15;60.04
61674;BME280;47573;43.832;5.974;2022-10-31T21:58:40;95797.31;;;25.17;60.03
61674;BME280;47573;43.832;5.974;2022-10-31T22:03:42;95799.13;;;25.12;60.03
61674;BME280;47573;43.832;5.974;2022-10-31T22:08:43;95800.19;;;25.11;60.30
61674;BME280;47573;43.832;5.974;2022-10-31T22:13:46;95794.00;;;25.15;60.04
61674;BME280;47573;43.832;5.974;2022-10-31T22:18:50;95783.69;;;25.06;60.30
61674;BME280;47573;43.832;5.974;2022-10-31T22:23:53;95790.00;;;25.06;60.30
61674;BME280;47573;43.832;5.974;2022-10-31T22:28:56;95801.75;;;25.07;60.55
61674;BME280;47573;43.832;5.974;2022-10-31T22:33:58;95809.13;;;25.06;60.36
61674;BME280;47573;43.832;5.974;2022-10-31T22:38:59;95803.06;;;25.04;60.17
61674;BME280;47573;43.832;5.974;2022-10-31T22:44:00;95803.06;;;25.04;60.36
61674;BME280;47573;43.832;5.974;2022-10-31T22:49:05;95802.94;;;25.11;60.30
61674;BME280;47573;43.832;5.974;2022-10-31T22:54:08;95812.34;;;25.03;60.29
61674;BME280;47573;43.832;5.974;2022-10-31T22:59:10;95808.53;;;25.04;60.17
61674;BME280;47573;43.832;5.974;2022-10-31T23:04:13;95803.56;;;25.01;60.40
61674;BME280;47573;43.832;5.974;2022-10-31T23:09:15;95794.78;;;24.99;60.52
61674;BME280;47573;43.832;5.974;2022-10-31T23:14:18;95800.25;;;24.99;60.50
61674;BME280;47573;43.832;5.974;2022-10-31T23:19:21;95793.72;;;25.00;60.54
61674;BME280;47573;43.832;5.974;2022-10-31T23:24:24;95789.34;;;24.99;60.31
61674;BME280;47573;43.832;5.974;2022-10-31T23:29:26;95789.81;;;24.96;60.11
61674;BME280;47573;43.832;5.974;2022-10-31T23:34:27;95786.00;;;24.97;60.26
61674;BME280;47573;43.832;5.974;2022-10-31T23:39:28;95794.78;;;24.99;60.33
61674;BME280;47573;43.832;5.974;2022-10-31T23:44:29;95818.81;;;24.97;60.36
61674;BME280;47573;43.832;5.974;2022-10-31T23:49:31;95822.59;;;24.96;60.41
61674;BME280;47573;43.832;5.974;2022-10-31T23:54:31;95832.69;;;24.96;60.12
61674;BME280;47573;43.832;5.974;2022-10-31T23:59:32;95842.78;;;24.95;60.34
